7  °C
Temperature
5  °C
  Dewpoint
87  %
   Humidity
Temp | Dewpoint | Humidity
23  km/h
Wind Speed
14  mph
Wind Speed
12  kts
Wind Speed
180°
Due South

Wind Speed
Partly Cloudy
Conditions
Pressure 984.92 (hPa) - 29.08 (in)
Visibility 6.2 (mi) - 10.0 (km)

Current Conditions
EGBJ
Location 6km (3.2mi)
Metar :EGBJ 071450Z 18012KT 9999 VCSH FEW012 SCT035 07/05 Q0985
Tue 7th December 14:50 pm

Airport
https://www.checkwx.com/
  Metar Aviation API Data Provided by https://www.checkwx.com/ CSS/SVG/PHP scripts by weather34.com © 2015-2021